createdAt,value
2022-10-20T00:02:07.626Z,15.32
2022-10-20T00:04:35.541Z,14.52
2022-10-20T00:07:03.224Z,15.18
2022-10-20T00:09:30.950Z,15.25
2022-10-20T00:11:58.647Z,15.57
2022-10-20T00:14:26.390Z,15.00
2022-10-20T00:16:55.488Z,14.93
2022-10-20T00:19:23.219Z,14.35
2022-10-20T00:21:51.001Z,14.80
2022-10-20T00:24:20.801Z,14.25
2022-10-20T00:26:48.947Z,14.55
2022-10-20T00:31:49.524Z,14.30
2022-10-20T00:34:18.667Z,14.60
2022-10-20T00:36:50.297Z,15.18
2022-10-20T00:39:19.218Z,13.18
2022-10-20T00:41:46.852Z,14.45
2022-10-20T00:44:49.753Z,13.80
2022-10-20T00:47:20.540Z,14.13
2022-10-20T00:49:50.291Z,14.45
2022-10-20T00:52:21.385Z,13.85
2022-10-20T00:54:50.657Z,15.10
2022-10-20T00:57:18.439Z,14.68
2022-10-20T00:59:46.559Z,14.13
2022-10-20T01:02:14.429Z,13.95
2022-10-20T01:04:42.844Z,14.52
2022-10-20T01:07:11.875Z,14.02
2022-10-20T01:09:39.995Z,13.68
2022-10-20T01:12:19.212Z,14.50
2022-10-20T01:14:56.939Z,13.90
2022-10-20T01:17:32.822Z,14.45
2022-10-20T01:20:25.604Z,13.63
2022-10-20T01:23:26.854Z,13.85
2022-10-20T01:26:20.946Z,13.93
2022-10-20T01:28:55.378Z,14.40
2022-10-20T01:31:31.161Z,13.70
2022-10-20T01:34:09.534Z,12.68
2022-10-20T01:36:39.983Z,13.68
2022-10-20T01:39:13.514Z,13.80
2022-10-20T01:41:47.179Z,13.27
2022-10-20T01:44:19.633Z,12.40
2022-10-20T01:46:47.962Z,13.43
2022-10-20T01:49:16.499Z,13.70
2022-10-20T01:51:44.239Z,13.23
2022-10-20T01:54:21.745Z,12.65
2022-10-20T01:57:01.797Z,12.93
2022-10-20T01:59:38.902Z,12.07
2022-10-20T02:02:22.408Z,12.65
2022-10-20T02:05:03.715Z,12.30
2022-10-20T02:07:33.940Z,12.13
2022-10-20T02:10:09.355Z,11.57
2022-10-20T02:12:41.773Z,11.70
2022-10-20T02:15:16.091Z,11.45
2022-10-20T02:17:47.831Z,11.50
2022-10-20T02:20:16.817Z,11.52
2022-10-20T02:22:46.314Z,11.70
2022-10-20T02:25:14.813Z,11.23
2022-10-20T02:27:47.215Z,10.75
2022-10-20T02:30:18.883Z,11.85
2022-10-20T02:32:52.532Z,11.77
2022-10-20T02:35:22.913Z,12.18
2022-10-20T02:37:50.883Z,11.10
2022-10-20T02:40:19.271Z,12.35
2022-10-20T02:42:47.335Z,11.07
2022-10-20T02:45:16.730Z,11.45
2022-10-20T02:47:44.442Z,11.10
2022-10-20T02:50:12.411Z,10.40
2022-10-20T02:52:40.709Z,10.65
2022-10-20T02:55:09.188Z,11.05
2022-10-20T02:57:37.120Z,10.85
2022-10-20T03:00:06.058Z,10.15
2022-10-20T03:02:35.143Z,10.60
2022-10-20T03:05:03.146Z,10.65
2022-10-20T03:07:30.792Z,10.63
2022-10-20T03:09:58.813Z,11.13
2022-10-20T03:12:28.901Z,10.45
2022-10-20T03:14:59.128Z,9.70
2022-10-20T03:17:26.856Z,11.00
2022-10-20T03:19:55.868Z,11.00
2022-10-20T03:22:23.614Z,9.75
2022-10-20T03:24:51.274Z,11.07
2022-10-20T03:27:19.324Z,11.30
2022-10-20T03:29:46.958Z,10.18
2022-10-20T03:32:14.652Z,10.98
2022-10-20T03:34:42.329Z,9.90
2022-10-20T03:37:11.364Z,10.35
2022-10-20T03:39:39.165Z,9.98
2022-10-20T03:42:06.815Z,9.73
2022-10-20T03:44:34.563Z,10.52
2022-10-20T03:47:02.178Z,9.45
2022-10-20T03:49:31.449Z,9.40
2022-10-20T03:51:59.669Z,9.10
2022-10-20T03:54:28.714Z,10.15
2022-10-20T03:56:56.686Z,9.55
2022-10-20T03:59:28.010Z,9.85
2022-10-20T04:01:58.264Z,9.80
2022-10-20T04:04:26.019Z,9.90
2022-10-20T04:06:53.674Z,9.52
2022-10-20T04:09:21.309Z,9.25
2022-10-20T04:11:50.320Z,10.80
2022-10-20T04:14:18.193Z,9.23
2022-10-20T04:16:45.854Z,9.73
2022-10-20T04:19:13.554Z,10.32
2022-10-20T04:21:41.217Z,9.70
2022-10-20T04:24:08.901Z,10.45
2022-10-20T04:26:36.566Z,9.45
2022-10-20T04:29:05.630Z,10.63
2022-10-20T04:31:33.295Z,9.70
2022-10-20T04:34:00.961Z,9.73
2022-10-20T04:36:28.628Z,10.07
2022-10-20T04:38:56.289Z,10.40
2022-10-20T04:41:24.144Z,10.00
2022-10-20T04:43:52.822Z,10.00
2022-10-20T04:46:21.836Z,9.80
2022-10-20T04:48:49.667Z,10.13
2022-10-20T04:51:17.752Z,10.60
2022-10-20T04:53:45.595Z,9.70
2022-10-20T04:56:19.365Z,10.40
2022-10-20T04:58:48.909Z,9.68
2022-10-20T05:01:16.860Z,10.98
2022-10-20T05:03:46.074Z,10.13
2022-10-20T05:06:16.141Z,10.68
2022-10-20T05:08:46.504Z,11.00
2022-10-20T05:11:16.488Z,9.95
2022-10-20T05:13:45.119Z,10.02
2022-10-20T05:16:13.310Z,10.00
2022-10-20T05:18:41.810Z,10.70
2022-10-20T05:21:13.160Z,10.10
2022-10-20T05:23:41.624Z,10.63
2022-10-20T05:26:11.651Z,10.20
2022-10-20T05:28:39.891Z,9.98
2022-10-20T05:31:09.497Z,10.23
2022-10-20T05:33:37.866Z,9.85
2022-10-20T05:36:11.962Z,10.95
2022-10-20T05:38:40.707Z,9.82
2022-10-20T05:41:10.192Z,10.88
2022-10-20T05:43:38.160Z,10.38
2022-10-20T05:46:06.358Z,10.80
2022-10-20T05:48:34.129Z,10.23
2022-10-20T05:51:12.097Z,10.20
2022-10-20T05:53:44.378Z,10.63
2022-10-20T05:56:16.657Z,10.45
2022-10-20T05:58:45.217Z,10.73
2022-10-20T06:01:17.480Z,11.18
2022-10-20T06:03:48.828Z,10.45
2022-10-20T06:06:17.024Z,10.90
2022-10-20T06:08:46.263Z,11.50
2022-10-20T06:11:16.278Z,11.00
2022-10-20T06:13:46.047Z,10.75
2022-10-20T06:16:18.311Z,10.63
2022-10-20T06:18:46.059Z,11.35
2022-10-20T06:21:16.099Z,10.45
2022-10-20T06:23:44.114Z,10.95
2022-10-20T06:26:17.467Z,10.75
2022-10-20T06:28:46.462Z,10.63
2022-10-20T06:31:16.087Z,11.10
2022-10-20T06:33:44.501Z,11.20
2022-10-20T06:36:13.369Z,11.45
2022-10-20T06:38:42.067Z,12.02
2022-10-20T06:41:12.867Z,10.88
2022-10-20T06:43:42.173Z,11.68
2022-10-20T06:46:13.276Z,11.85
2022-10-20T06:48:41.051Z,10.50
2022-10-20T06:51:11.997Z,11.05
2022-10-20T06:53:44.072Z,11.18
2022-10-20T06:56:16.417Z,11.05
2022-10-20T06:58:47.457Z,11.30
2022-10-20T07:01:18.236Z,11.02
2022-10-20T07:03:48.331Z,11.57
2022-10-20T07:06:20.203Z,11.77
2022-10-20T07:08:48.372Z,11.70
2022-10-20T07:11:17.869Z,12.07
2022-10-20T07:13:49.051Z,11.30
2022-10-20T07:16:18.802Z,12.07
2022-10-20T07:18:46.789Z,11.68
2022-10-20T07:21:16.743Z,12.63
2022-10-20T07:23:45.143Z,12.40
2022-10-20T07:26:14.590Z,11.48
2022-10-20T07:28:43.983Z,11.45
2022-10-20T07:31:15.304Z,12.25
2022-10-20T07:33:43.051Z,12.10
2022-10-20T07:36:15.789Z,11.43
2022-10-20T07:38:43.901Z,12.40
2022-10-20T07:41:12.343Z,11.45
2022-10-20T07:43:40.715Z,11.77
2022-10-20T07:46:09.254Z,12.13
2022-10-20T07:48:39.115Z,11.50
2022-10-20T07:51:28.330Z,12.13
2022-10-20T07:54:00.579Z,12.85
2022-10-20T07:56:30.913Z,11.77
2022-10-20T07:58:59.281Z,11.48
2022-10-20T08:01:27.087Z,13.27
2022-10-20T08:03:56.134Z,11.52
2022-10-20T08:06:24.185Z,12.02
2022-10-20T08:08:51.979Z,12.48
2022-10-20T08:11:20.151Z,12.70
2022-10-20T08:13:47.945Z,12.25
2022-10-20T08:16:17.327Z,13.00
2022-10-20T08:18:52.004Z,12.73
2022-10-20T08:21:22.724Z,12.15
2022-10-20T08:23:51.324Z,12.98
2022-10-20T08:26:21.239Z,11.85
2022-10-20T08:28:49.517Z,12.30
2022-10-20T08:31:17.348Z,12.52
2022-10-20T08:33:48.825Z,13.57
2022-10-20T08:36:19.172Z,12.93
2022-10-20T08:38:48.306Z,13.88
2022-10-20T08:41:19.342Z,13.90
2022-10-20T08:43:49.132Z,14.40
2022-10-20T08:46:19.787Z,13.40
2022-10-20T08:48:49.141Z,13.75
2022-10-20T08:51:20.177Z,13.57
2022-10-20T08:53:51.718Z,13.10
2022-10-20T08:56:23.947Z,13.57
2022-10-20T08:58:52.339Z,13.25
2022-10-20T09:01:22.926Z,14.25
2022-10-20T09:03:55.579Z,12.63
2022-10-20T09:06:23.493Z,13.77
2022-10-20T09:08:53.221Z,13.32
2022-10-20T09:11:26.551Z,13.50
2022-10-20T09:13:54.758Z,13.70
2022-10-20T09:16:41.584Z,13.57
2022-10-20T09:19:19.093Z,12.55
2022-10-20T09:21:50.816Z,12.60
2022-10-20T09:24:21.944Z,12.93
2022-10-20T09:26:59.120Z,13.07
2022-10-20T09:29:36.931Z,12.63
2022-10-20T09:32:27.964Z,13.15
2022-10-20T09:34:52.642Z,13.40
2022-10-20T09:37:20.803Z,13.90
2022-10-20T09:39:57.122Z,13.00
2022-10-20T09:42:29.873Z,13.43
2022-10-20T09:45:00.713Z,12.75
2022-10-20T09:47:29.927Z,13.07
2022-10-20T09:50:01.273Z,14.18
2022-10-20T09:52:34.586Z,13.88
2022-10-20T09:55:08.869Z,13.65
2022-10-20T09:57:37.377Z,13.32
2022-10-20T10:00:25.263Z,13.02
2022-10-20T10:03:10.065Z,13.32
2022-10-20T10:05:37.893Z,14.02
2022-10-20T10:08:06.137Z,13.98
2022-10-20T10:10:35.171Z,13.65
2022-10-20T10:15:38.888Z,14.05
2022-10-20T10:18:14.905Z,13.18
2022-10-20T10:20:42.809Z,14.85
2022-10-20T10:23:20.421Z,14.30
2022-10-20T10:25:50.550Z,13.82
2022-10-20T10:28:28.843Z,14.23
2022-10-20T10:31:08.159Z,13.45
2022-10-20T10:33:35.847Z,13.75
2022-10-20T10:36:06.470Z,14.82
2022-10-20T10:38:39.155Z,15.07
2022-10-20T10:41:16.926Z,15.50
2022-10-20T10:43:50.795Z,16.05
2022-10-20T10:46:21.520Z,17.00
2022-10-20T10:49:09.355Z,16.88
2022-10-20T10:51:50.580Z,17.85
2022-10-20T10:54:35.708Z,17.65
2022-10-20T10:57:13.960Z,15.85
2022-10-20T10:59:44.921Z,15.88
2022-10-20T11:02:45.431Z,16.98
2022-10-20T11:05:44.014Z,16.25
2022-10-20T11:08:27.619Z,17.38
2022-10-20T11:11:04.115Z,16.65
2022-10-20T11:13:38.109Z,17.73
2022-10-20T11:16:16.859Z,19.45
2022-10-20T11:19:08.561Z,18.40
2022-10-20T11:21:47.312Z,18.38
2022-10-20T11:24:44.443Z,19.23
2022-10-20T11:27:15.395Z,19.30
2022-10-20T11:29:48.442Z,18.55
2022-10-20T11:32:26.590Z,19.25
2022-10-20T11:35:02.244Z,19.08
2022-10-20T11:37:32.870Z,17.58
2022-10-20T11:40:14.779Z,16.92
2022-10-20T11:42:51.002Z,17.52
2022-10-20T11:45:36.817Z,18.05
2022-10-20T11:48:13.087Z,17.40
2022-10-20T11:50:43.221Z,17.38
2022-10-20T11:53:40.001Z,17.08
2022-10-20T11:56:26.297Z,16.33
2022-10-20T11:59:14.909Z,16.55
2022-10-20T12:02:04.577Z,16.88
2022-10-20T12:05:06.280Z,16.92
2022-10-20T12:07:54.168Z,15.90
2022-10-20T12:10:44.754Z,15.63
2022-10-20T12:13:28.315Z,15.05
2022-10-20T12:15:55.977Z,15.00
2022-10-20T12:18:28.453Z,16.52
2022-10-20T12:21:02.645Z,17.02
2022-10-20T12:24:07.374Z,16.48
2022-10-20T12:27:07.776Z,16.60
2022-10-20T12:29:53.922Z,15.55
2022-10-20T12:33:09.813Z,15.07
2022-10-20T12:36:00.827Z,15.98
2022-10-20T12:38:31.681Z,14.60
2022-10-20T12:41:02.005Z,15.77
2022-10-20T12:43:36.347Z,16.90
2022-10-20T12:46:11.535Z,15.07
2022-10-20T12:48:45.983Z,16.05
2022-10-20T12:51:24.307Z,15.25
2022-10-20T12:53:58.562Z,15.23
2022-10-20T12:56:35.094Z,15.65
2022-10-20T12:59:23.588Z,15.70
2022-10-20T13:02:40.476Z,15.18
2022-10-20T13:05:40.763Z,17.70
2022-10-20T13:08:25.898Z,17.05
2022-10-20T13:10:55.214Z,17.67
2022-10-20T13:13:52.006Z,17.75
2022-10-20T13:16:22.441Z,18.45
2022-10-20T13:18:52.418Z,17.70
2022-10-20T13:21:27.563Z,20.20
2022-10-20T13:24:01.477Z,20.27
2022-10-20T13:26:32.854Z,20.13
2022-10-20T13:29:02.662Z,20.45
2022-10-20T13:31:35.335Z,21.42
2022-10-20T13:34:13.876Z,19.70
2022-10-20T13:36:59.684Z,21.73
2022-10-20T13:39:37.238Z,22.23
2022-10-20T13:42:18.010Z,21.98
2022-10-20T13:44:55.956Z,22.92
2022-10-20T13:47:43.895Z,21.42
2022-10-20T13:50:14.717Z,21.77
2022-10-20T13:52:44.802Z,23.48
2022-10-20T13:55:19.369Z,23.38
2022-10-20T13:57:56.259Z,22.35
2022-10-20T14:00:27.694Z,23.17
2022-10-20T14:02:59.522Z,23.17
2022-10-20T14:05:30.282Z,22.23
2022-10-20T14:08:04.585Z,21.73
2022-10-20T14:10:40.164Z,22.33
2022-10-20T14:13:14.749Z,21.40
2022-10-20T14:15:48.116Z,23.88
2022-10-20T14:18:23.919Z,23.23
2022-10-20T14:20:56.850Z,23.38
2022-10-20T14:23:26.303Z,22.80
2022-10-20T14:25:54.796Z,21.70
2022-10-20T14:28:35.133Z,22.48
2022-10-20T14:31:03.852Z,22.17
2022-10-20T14:33:32.875Z,22.80
2022-10-20T14:36:02.622Z,22.52
2022-10-20T14:38:35.337Z,21.77
2022-10-20T14:41:03.307Z,23.92
2022-10-20T14:43:39.022Z,23.50
2022-10-20T14:46:08.822Z,26.25
2022-10-20T14:48:39.114Z,24.33
2022-10-20T14:51:31.342Z,23.88
2022-10-20T14:54:26.794Z,25.35
2022-10-20T14:56:56.146Z,26.25
2022-10-20T14:59:27.573Z,28.60
2022-10-20T15:02:02.348Z,28.15
2022-10-20T15:04:33.443Z,27.50
2022-10-20T15:07:06.664Z,26.63
2022-10-20T15:09:40.979Z,28.25
2022-10-20T15:12:16.037Z,27.98
2022-10-20T15:14:47.869Z,29.65
2022-10-20T15:17:35.835Z,29.83
2022-10-20T15:20:33.150Z,28.38
2022-10-20T15:23:02.545Z,27.30
2022-10-20T15:25:32.586Z,26.33
2022-10-20T15:28:00.767Z,27.15
2022-10-20T15:30:30.986Z,26.77
2022-10-20T15:32:58.939Z,26.48
2022-10-20T15:35:30.714Z,24.05
2022-10-20T15:37:58.374Z,23.73
2022-10-20T15:40:26.429Z,24.23
2022-10-20T15:42:54.135Z,23.80
2022-10-20T15:45:25.366Z,22.95
2022-10-20T15:47:54.451Z,23.92
2022-10-20T15:50:24.233Z,22.23
2022-10-20T15:52:54.136Z,26.65
2022-10-20T15:55:26.424Z,24.85
2022-10-20T15:57:55.727Z,23.45
2022-10-20T16:00:26.325Z,22.08
2022-10-20T16:02:56.066Z,23.02
2022-10-20T16:05:26.154Z,22.33
2022-10-20T16:07:55.335Z,21.40
2022-10-20T16:10:24.385Z,21.10
2022-10-20T16:12:52.896Z,21.48
2022-10-20T16:15:20.768Z,21.30
2022-10-20T16:20:23.205Z,21.95
2022-10-20T16:22:50.986Z,22.13
2022-10-20T16:25:18.789Z,22.63
2022-10-20T16:27:47.000Z,22.75
2022-10-20T16:30:16.427Z,27.25
2022-10-20T16:32:44.133Z,23.08
2022-10-20T16:35:12.050Z,21.80
2022-10-20T16:37:41.084Z,24.60
2022-10-20T16:40:09.724Z,24.55
2022-10-20T16:42:37.344Z,27.73
2022-10-20T16:45:05.879Z,26.15
2022-10-20T16:47:33.859Z,25.85
2022-10-20T16:50:01.730Z,25.30
2022-10-20T16:52:29.549Z,26.35
2022-10-20T16:54:58.465Z,31.23
2022-10-20T16:57:28.179Z,26.65
2022-10-20T16:59:55.897Z,25.83
2022-10-20T17:02:23.975Z,24.27
2022-10-20T17:04:51.897Z,22.55
2022-10-20T17:07:19.723Z,23.95
2022-10-20T17:09:47.358Z,22.63
2022-10-20T17:12:16.462Z,23.25
2022-10-20T17:14:44.229Z,22.88
2022-10-20T17:17:11.897Z,24.75
2022-10-20T17:19:40.901Z,24.60
2022-10-20T17:24:39.034Z,31.23
2022-10-20T17:27:06.670Z,30.33
2022-10-20T17:29:35.942Z,30.63
2022-10-20T17:32:03.911Z,29.02
2022-10-20T17:34:31.610Z,28.50
2022-10-20T17:36:59.301Z,29.83
2022-10-20T17:39:28.396Z,27.15
2022-10-20T17:41:56.123Z,29.73
2022-10-20T17:44:24.137Z,26.65
2022-10-20T17:46:53.313Z,28.23
2022-10-20T17:49:21.052Z,27.88
2022-10-20T17:51:48.709Z,26.75
2022-10-20T17:54:16.603Z,26.55
2022-10-20T17:56:44.260Z,24.65
2022-10-20T18:01:41.674Z,23.92
2022-10-20T18:04:13.182Z,23.50
2022-10-20T18:06:41.767Z,23.38
2022-10-20T18:09:11.954Z,23.63
2022-10-20T18:11:41.377Z,24.33
2022-10-20T18:14:09.013Z,25.33
2022-10-20T18:16:38.350Z,25.92
2022-10-20T18:19:06.951Z,26.75
2022-10-20T18:21:35.994Z,24.08
2022-10-20T18:24:05.731Z,24.45
2022-10-20T18:26:36.598Z,23.67
2022-10-20T18:29:06.002Z,25.15
2022-10-20T18:31:35.592Z,23.02
2022-10-20T18:34:07.139Z,22.52
2022-10-20T18:36:40.677Z,23.17
2022-10-20T18:39:11.701Z,23.17
2022-10-20T18:41:43.346Z,23.15
2022-10-20T18:44:13.474Z,23.75
2022-10-20T18:46:42.074Z,23.15
2022-10-20T18:49:12.626Z,23.35
2022-10-20T18:51:42.663Z,23.77
2022-10-20T18:54:10.548Z,22.23
2022-10-20T18:56:38.547Z,22.48
2022-10-20T18:59:08.762Z,22.73
2022-10-20T19:01:38.078Z,21.52
2022-10-20T19:04:07.005Z,22.52
2022-10-20T19:06:37.588Z,22.40
2022-10-20T19:09:08.474Z,21.88
2022-10-20T19:11:37.863Z,22.30
2022-10-20T19:14:06.685Z,22.60
2022-10-20T19:16:35.499Z,21.00
2022-10-20T19:19:06.134Z,22.15
2022-10-20T19:21:35.007Z,22.48
2022-10-20T19:24:08.209Z,21.73
2022-10-20T19:26:39.185Z,21.60
2022-10-20T19:29:10.234Z,22.08
2022-10-20T19:31:40.972Z,22.33
2022-10-20T19:34:11.670Z,22.20
2022-10-20T19:36:41.032Z,22.63
2022-10-20T19:39:12.513Z,22.08
2022-10-20T19:41:40.482Z,22.15
2022-10-20T19:44:12.365Z,22.38
2022-10-20T19:46:42.087Z,22.40
2022-10-20T19:49:10.639Z,24.45
2022-10-20T19:51:39.678Z,24.48
2022-10-20T19:54:08.245Z,26.15
2022-10-20T19:56:38.640Z,24.63
2022-10-20T19:59:07.882Z,26.80
2022-10-20T20:01:36.199Z,25.92
2022-10-20T20:04:08.490Z,26.20
2022-10-20T20:06:36.566Z,26.77
2022-10-20T20:09:08.689Z,27.27
2022-10-20T20:11:38.914Z,24.45
2022-10-20T20:14:08.693Z,24.15
2022-10-20T20:16:37.165Z,24.58
2022-10-20T20:19:05.181Z,23.58
2022-10-20T20:21:32.915Z,23.63
2022-10-20T20:24:02.553Z,24.35
2022-10-20T20:26:32.262Z,24.00
2022-10-20T20:29:01.582Z,23.33
2022-10-20T20:31:30.006Z,22.95
2022-10-20T20:33:58.165Z,23.85
2022-10-20T20:36:27.597Z,23.98
2022-10-20T20:38:57.882Z,23.75
2022-10-20T20:41:27.583Z,23.42
2022-10-20T20:43:55.680Z,24.42
2022-10-20T20:46:28.797Z,23.15
2022-10-20T20:48:57.079Z,23.02
2022-10-20T20:51:27.005Z,22.63
2022-10-20T20:53:54.758Z,23.15
2022-10-20T20:56:24.601Z,22.98
2022-10-20T20:58:55.805Z,20.50
2022-10-20T21:01:27.385Z,19.15
2022-10-20T21:03:56.510Z,23.38
2022-10-20T21:06:33.993Z,21.20
2022-10-20T21:09:06.874Z,21.33
2022-10-20T21:11:34.627Z,19.90
2022-10-20T21:14:02.583Z,20.55
2022-10-20T21:16:34.997Z,20.88
2022-10-20T21:19:05.355Z,21.13
2022-10-20T21:21:35.585Z,19.45
2022-10-20T21:24:05.441Z,20.45
2022-10-20T21:26:34.412Z,19.73
2022-10-20T21:29:02.057Z,19.20
2022-10-20T21:31:32.138Z,20.67
2022-10-20T21:34:02.156Z,19.58
2022-10-20T21:36:32.397Z,19.65
2022-10-20T21:39:00.691Z,20.90
2022-10-20T21:41:30.575Z,20.98
2022-10-20T21:44:00.059Z,20.50
2022-10-20T21:46:29.799Z,20.23
2022-10-20T21:49:00.962Z,19.52
2022-10-20T21:51:30.509Z,19.42
2022-10-20T21:53:59.371Z,18.95
2022-10-20T21:56:27.411Z,18.65
2022-10-20T21:58:55.340Z,17.85
2022-10-20T22:01:24.706Z,17.08
2022-10-20T22:03:54.144Z,17.42
2022-10-20T22:06:25.385Z,17.55
2022-10-20T22:08:55.082Z,17.92
2022-10-20T22:11:25.242Z,17.85
2022-10-20T22:13:53.091Z,17.35
2022-10-20T22:16:23.438Z,25.40
2022-10-20T22:18:55.482Z,20.30
2022-10-20T22:21:25.409Z,17.25
2022-10-20T22:23:54.386Z,17.33
2022-10-20T22:26:22.564Z,18.10
2022-10-20T22:28:51.211Z,18.30
2022-10-20T22:31:19.248Z,17.67
2022-10-20T22:33:46.939Z,18.48
2022-10-20T22:36:14.570Z,17.05
2022-10-20T22:38:43.523Z,16.98
2022-10-20T22:41:11.822Z,17.15
2022-10-20T22:43:39.835Z,16.10
2022-10-20T22:46:08.204Z,16.98
2022-10-20T22:48:36.298Z,18.05
2022-10-20T22:51:05.659Z,17.90
2022-10-20T22:53:33.318Z,18.15
2022-10-20T22:56:08.169Z,17.63
2022-10-20T22:58:36.421Z,18.33
2022-10-20T23:01:07.964Z,17.60
2022-10-20T23:03:35.766Z,17.15
2022-10-20T23:06:07.348Z,17.38
2022-10-20T23:08:38.939Z,17.58
2022-10-20T23:11:08.012Z,16.30
2022-10-20T23:13:36.035Z,16.63
2022-10-20T23:16:04.391Z,16.00
2022-10-20T23:18:32.083Z,16.48
2022-10-20T23:20:59.815Z,15.35
2022-10-20T23:23:27.636Z,16.60
2022-10-20T23:25:56.286Z,15.85
2022-10-20T23:28:26.729Z,17.17
2022-10-20T23:30:54.436Z,15.43
2022-10-20T23:33:22.149Z,15.55
2022-10-20T23:35:49.862Z,14.88
2022-10-20T23:38:17.580Z,14.55
2022-10-20T23:40:45.317Z,13.80
2022-10-20T23:43:13.014Z,13.75
2022-10-20T23:45:43.843Z,13.20
2022-10-20T23:48:11.574Z,13.20
2022-10-20T23:50:39.260Z,14.63
2022-10-20T23:53:07.036Z,14.73
2022-10-20T23:55:34.889Z,13.50
2022-10-20T23:58:02.764Z,15.48
